Time;durP1;ratioP1;P1;durP2;ratioP2;P2;SDS_P1;SDS_P2;PMS_P1;PMS_P2;Temp;Humidity;BMP_temperature;BMP_pressure;BME280_temperature;BME280_humidity;BME280_pressure;Samples;Min_cycle;Max_cycle;Signal;HPM_P1;HPM_P2
2022/05/24 00:00:35;;;;;;;5.78;2.20;;;;;;;19.97;47.76;99151.03;5012346;28;20049;-86
2022/05/24 00:03:01;;;;;;;3.47;2.30;;;;;;;19.14;47.77;99023.47;5012359;28;20033;-85
2022/05/24 00:05:29;;;;;;;3.63;2.10;;;;;;;19.77;47.81;99121.31;5012426;28;20036;-86
2022/05/24 00:07:54;;;;;;;3.58;2.42;;;;;;;19.33;47.82;99067.69;5011140;28;20096;-86
2022/05/24 00:10:24;;;;;;;3.97;2.13;;;;;;;19.83;48.23;99141.75;5011116;28;20483;-86
2022/05/24 00:12:50;;;;;;;6.80;2.55;;;;;;;19.62;48.38;99121.94;5012028;28;20108;-85
2022/05/24 00:15:23;;;;;;;5.90;2.38;;;;;;;19.28;48.27;99070.25;5010777;28;20445;-86
2022/05/24 00:17:53;;;;;;;8.65;2.28;;;;;;;19.20;48.66;99070.66;5010984;28;20036;-86
2022/05/24 00:20:19;;;;;;;4.97;2.60;;;;;;;19.59;48.98;99130.44;5011081;28;20029;-86
2022/05/24 00:22:45;;;;;;;4.70;2.17;;;;;;;18.84;48.72;99016.63;5010957;28;20026;-86
2022/05/24 00:25:11;;;;;;;4.50;2.38;;;;;;;19.65;48.98;99156.25;5012246;28;20102;-86
2022/05/24 00:27:36;;;;;;;4.95;2.30;;;;;;;19.22;48.91;99104.16;5012634;28;20465;-86
2022/05/24 00:30:03;;;;;;;4.43;2.25;;;;;;;19.00;48.86;99071.97;5011237;28;20578;-86
2022/05/24 00:32:28;;;;;;;4.63;2.30;;;;;;;19.39;49.08;99154.22;5012504;28;20407;-86
2022/05/24 00:34:54;;;;;;;4.18;2.03;;;;;;;18.72;49.09;99029.28;5012324;28;20026;-86
2022/05/24 00:37:23;;;;;;;4.18;2.30;;;;;;;19.45;49.13;99150.56;5011156;28;20021;-86
2022/05/24 00:39:49;;;;;;;3.50;2.17;;;;;;;18.54;49.38;99014.22;5012437;28;20028;-85
2022/05/24 00:42:21;;;;;;;3.85;2.40;;;;;;;19.33;49.19;99129.25;5012286;28;20030;-86
2022/05/24 00:44:53;;;;;;;3.58;2.17;;;;;;;19.36;49.18;99155.53;5012327;28;20061;-86
2022/05/24 00:47:30;;;;;;;3.85;2.60;;;;;;;19.32;49.41;99160.56;5011065;28;20021;-86
2022/05/24 00:49:59;;;;;;;3.90;2.33;;;;;;;18.73;49.32;99069.16;5010989;28;20072;-86
2022/05/24 00:52:33;;;;;;;4.88;2.45;;;;;;;19.38;49.39;99169.47;5011960;28;20058;-86
2022/05/24 00:55:00;;;;;;;4.88;2.33;;;;;;;19.22;49.43;99136.28;5010837;28;20041;-86
2022/05/24 00:57:31;;;;;;;3.47;2.35;;;;;;;19.40;49.30;99162.00;5010881;28;20083;-86
2022/05/24 01:00:19;;;;;;;3.53;2.28;;;;;;;19.08;49.77;99118.13;5010678;28;20065;-86
2022/05/24 01:02:45;;;;;;;6.72;2.45;;;;;;;18.44;49.47;99016.72;5011814;28;20041;-86
2022/05/24 01:05:21;;;;;;;4.40;2.08;;;;;;;19.29;49.36;99133.44;5019212;28;20049;-85
2022/05/24 01:07:47;;;;;;;5.50;2.47;;;;;;;19.00;49.21;99097.94;5026510;28;20078;-87
2022/05/24 01:10:17;;;;;;;3.92;2.38;;;;;;;19.05;49.30;99100.69;5011401;28;20107;-86
2022/05/24 01:12:51;;;;;;;5.68;2.58;;;;;;;18.14;49.01;98990.28;5012496;28;20056;-86
2022/05/24 01:15:17;;;;;;;5.15;2.40;;;;;;;19.31;49.16;99156.22;5011961;28;20102;-86
2022/05/24 01:17:44;;;;;;;5.10;2.30;;;;;;;18.65;49.18;99058.84;5010430;28;20029;-86
2022/05/24 01:20:11;;;;;;;2.97;2.33;;;;;;;19.30;49.19;99165.31;5011660;28;20037;-85
2022/05/24 01:22:48;;;;;;;4.20;2.50;;;;;;;19.28;49.31;99163.94;5010698;28;20414;-86
2022/05/24 01:25:41;;;;;;;4.97;2.50;;;;;;;19.18;49.37;99169.94;5011102;28;20113;-86
2022/05/24 01:28:17;;;;;;;4.03;2.53;;;;;;;19.04;49.41;99182.00;5014494;28;20026;-86
2022/05/24 01:30:42;;;;;;;5.00;2.97;;;;;;;18.38;49.72;99109.38;5015822;28;20021;-86
2022/05/24 01:36:09;;;;;;;6.22;2.60;;;;;;;18.33;49.96;99125.31;5016026;28;20039;-86
2022/05/24 01:38:35;;;;;;;3.13;2.40;;;;;;;18.67;50.09;99162.91;5014066;28;20037;-86
2022/05/24 01:41:02;;;;;;;3.92;2.65;;;;;;;18.72;49.88;99165.66;5014396;28;20124;-86
2022/05/24 01:43:28;;;;;;;4.90;2.95;;;;;;;18.70;50.05;99175.78;5014590;28;20119;-86
2022/05/24 01:46:14;;;;;;;4.60;2.67;;;;;;;18.40;50.45;99165.28;5020832;28;20037;-85
2022/05/24 01:48:53;;;;;;;2.88;2.60;;;;;;;17.99;50.27;99087.00;5032350;28;20026;-85
2022/05/24 01:51:23;;;;;;;4.80;2.75;;;;;;;17.68;50.23;99058.84;5034005;28;20037;-86
2022/05/24 01:53:54;;;;;;;4.32;2.67;;;;;;;18.05;50.21;99125.31;5033110;28;20049;-86
2022/05/24 01:56:27;;;;;;;4.78;2.72;;;;;;;17.87;50.40;99126.28;5027876;28;20526;-86
2022/05/24 01:58:56;;;;;;;3.72;2.42;;;;;;;18.30;50.76;99178.44;5014792;28;20422;-86
2022/05/24 02:01:43;;;;;;;6.47;2.75;;;;;;;18.27;50.98;99187.75;5013413;28;20064;-86
2022/05/24 02:04:09;;;;;;;5.15;2.85;;;;;;;18.22;50.80;99171.59;5013689;28;20418;-86
2022/05/24 02:06:35;;;;;;;6.53;3.20;;;;;;;18.22;50.99;99179.63;5014859;28;20045;-86
2022/05/24 02:09:01;;;;;;;3.50;2.50;;;;;;;17.98;51.07;99130.78;5014636;28;20053;-86
2022/05/24 02:11:30;;;;;;;7.18;2.92;;;;;;;17.77;51.06;99102.00;5013139;28;20041;-86
2022/05/24 02:14:20;;;;;;;5.40;2.90;;;;;;;17.53;51.46;99076.34;5014797;28;20058;-86
2022/05/24 02:16:54;;;;;;;4.05;2.70;;;;;;;18.16;51.33;99180.56;5013413;28;20112;-86
2022/05/24 02:19:22;;;;;;;4.32;2.90;;;;;;;18.12;51.13;99181.28;5014973;28;20026;-86
2022/05/24 02:21:55;;;;;;;4.78;2.90;;;;;;;17.57;51.47;99096.19;5013358;28;20033;-85
2022/05/24 02:24:23;;;;;;;5.57;2.80;;;;;;;17.15;51.54;99059.81;5014964;28;20022;-86
2022/05/24 02:26:49;;;;;;;5.65;3.00;;;;;;;18.05;51.47;99202.78;5014717;28;20124;-86
2022/05/24 02:29:17;;;;;;;4.85;3.10;;;;;;;17.74;51.49;99162.03;5014300;28;20521;-86
2022/05/24 02:31:44;;;;;;;4.60;3.13;;;;;;;17.85;51.42;99189.78;5014569;28;20021;-86
2022/05/24 02:34:10;;;;;;;7.13;3.97;;;;;;;17.77;51.26;99169.56;5014210;28;20030;-86
2022/05/24 02:36:35;;;;;;;5.82;4.25;;;;;;;16.38;51.37;98954.22;5012515;28;20102;-86
2022/05/24 02:39:01;;;;;;;6.13;4.53;;;;;;;17.38;51.25;99108.88;5013011;28;20033;-86
2022/05/24 02:41:29;;;;;;;8.93;5.47;;;;;;;17.69;51.27;99163.78;5014228;28;20049;-86
2022/05/24 02:44:00;;;;;;;11.20;5.82;;;;;;;17.33;51.59;99124.75;5013105;28;20026;-86
2022/05/24 02:46:25;;;;;;;9.02;5.72;;;;;;;17.40;51.91;99168.16;5012882;28;20080;-86
2022/05/24 02:48:51;;;;;;;9.23;6.68;;;;;;;16.40;51.99;99008.09;5013705;28;20104;-86
2022/05/24 02:51:17;;;;;;;7.20;6.00;;;;;;;17.61;52.15;99206.81;5012494;28;20113;-86
2022/05/24 02:53:45;;;;;;;6.70;5.97;;;;;;;17.32;51.88;99169.31;5013933;28;20053;-86
2022/05/24 02:56:12;;;;;;;8.35;5.85;;;;;;;17.63;51.89;99220.75;5012714;28;20050;-86
2022/05/24 02:58:38;;;;;;;10.18;5.70;;;;;;;16.98;51.74;99117.50;5013751;28;20022;-86
2022/05/24 03:01:10;;;;;;;8.95;6.05;;;;;;;17.39;51.84;99166.53;5012199;28;20403;-86
2022/05/24 03:03:36;;;;;;;8.10;5.53;;;;;;;17.50;51.90;99197.75;5012505;28;20076;-86
2022/05/24 03:06:01;;;;;;;5.65;4.97;;;;;;;16.78;51.66;99085.84;5013620;28;20454;-86
2022/05/24 03:11:11;;;;;;;6.28;5.00;;;;;;;17.24;51.88;99184.84;5013805;28;20032;-86
2022/05/24 03:16:20;;;;;;;8.05;5.30;;;;;;;17.62;51.63;99233.28;5013777;28;20037;-86
2022/05/24 03:18:45;;;;;;;6.97;4.90;;;;;;;17.42;52.01;99225.59;5012344;28;20018;-86
2022/05/24 03:21:11;;;;;;;6.25;4.90;;;;;;;16.34;51.96;99041.75;5012357;28;20022;-86
2022/05/24 03:23:36;;;;;;;6.22;4.63;;;;;;;17.33;51.73;99156.78;5013638;28;20036;-86
2022/05/24 03:26:02;;;;;;;7.72;5.13;;;;;;;17.49;51.87;99214.81;5013414;28;20185;-85
2022/05/24 03:28:28;;;;;;;7.90;5.22;;;;;;;17.43;51.67;99189.84;5013582;28;20409;-86
2022/05/24 03:30:54;;;;;;;6.38;5.25;;;;;;;17.79;51.88;99238.75;5012177;28;20018;-86
2022/05/24 03:33:20;;;;;;;5.40;4.90;;;;;;;17.21;51.55;99148.75;5011932;28;20028;-86
2022/05/24 03:35:45;;;;;;;8.60;5.63;;;;;;;17.20;51.83;99141.00;5012191;28;20105;-86
2022/05/24 03:38:11;;;;;;;5.63;4.88;;;;;;;17.51;51.82;99201.22;5013172;28;20132;-86
2022/05/24 03:40:36;;;;;;;5.97;4.75;;;;;;;16.89;51.95;99115.41;5013317;28;20022;-86
2022/05/24 03:43:03;;;;;;;6.00;4.60;;;;;;;17.07;51.86;99174.81;5013345;28;20017;-86
2022/05/24 03:45:29;;;;;;;4.78;4.28;;;;;;;17.53;52.07;99215.16;5011931;28;20053;-86
2022/05/24 03:47:55;;;;;;;7.20;5.05;;;;;;;17.64;52.13;99233.84;5010897;28;20506;-86
2022/05/24 03:50:23;;;;;;;9.20;5.22;;;;;;;17.02;51.88;99118.69;5012682;28;20121;-86
2022/05/24 03:52:48;;;;;;;7.55;5.03;;;;;;;17.72;52.09;99230.88;5012988;28;20053;-86
2022/05/24 03:55:14;;;;;;;10.82;6.03;;;;;;;18.00;51.83;99246.22;5013166;28;20074;-86
2022/05/24 04:00:25;;;;;;;9.13;5.20;;;;;;;17.98;51.32;99240.31;5012911;28;20092;-86
2022/05/24 04:02:50;;;;;;;9.73;5.95;;;;;;;17.82;51.53;99224.13;5011631;28;20117;-86
2022/05/24 04:05:16;;;;;;;8.57;5.68;;;;;;;17.34;51.52;99139.72;5011464;28;20026;-85
2022/05/24 04:07:42;;;;;;;9.38;6.25;;;;;;;17.94;51.62;99251.69;5011378;28;20072;-86
2022/05/24 04:10:10;;;;;;;10.32;5.30;;;;;;;17.88;51.66;99269.47;5011115;28;20479;-86
2022/05/24 04:12:35;;;;;;;7.80;5.88;;;;;;;17.88;51.76;99257.97;5012281;28;20021;-85
2022/05/24 04:15:01;;;;;;;8.13;5.43;;;;;;;17.72;51.97;99235.41;5012197;28;20022;-86
2022/05/24 04:17:26;;;;;;;8.63;5.43;;;;;;;17.14;51.91;99126.72;5012447;28;20080;-86
2022/05/24 04:19:52;;;;;;;10.00;5.35;;;;;;;17.52;51.68;99184.19;5011264;28;20109;-86
2022/05/24 04:22:18;;;;;;;8.80;5.22;;;;;;;17.62;51.88;99187.88;5012058;28;20071;-86
2022/05/24 04:24:43;;;;;;;6.28;4.10;;;;;;;18.19;52.00;99252.25;5012158;28;20517;-86
2022/05/24 04:27:09;;;;;;;5.88;4.20;;;;;;;18.23;52.06;99256.06;5010550;28;20114;-86
2022/05/24 04:29:37;;;;;;;6.03;4.65;;;;;;;18.04;52.08;99226.00;5010525;28;20028;-86
2022/05/24 04:32:03;;;;;;;8.75;4.80;;;;;;;17.98;52.03;99204.75;5012055;28;20025;-86
2022/05/24 04:34:28;;;;;;;7.20;4.90;;;;;;;18.01;51.94;99197.09;5012195;28;20017;-86
2022/05/24 04:36:53;;;;;;;8.82;5.30;;;;;;;17.52;51.99;99150.28;5011872;28;20517;-86
2022/05/24 04:39:19;;;;;;;8.35;5.25;;;;;;;17.71;52.33;99134.97;5010473;28;20025;-86
2022/05/24 04:44:28;;;;;;;5.18;4.38;;;;;;;18.29;51.83;99187.50;5011792;28;20072;-86
2022/05/24 04:47:09;;;;;;;8.43;4.88;;;;;;;18.04;51.87;99155.75;5010644;28;20057;-86
2022/05/24 04:49:42;;;;;;;9.98;5.25;;;;;;;18.64;52.01;99239.06;5010574;28;20025;-86
2022/05/24 04:52:10;;;;;;;8.70;5.32;;;;;;;18.15;51.74;99140.72;5011472;28;20061;-86
2022/05/24 04:54:38;;;;;;;6.03;4.72;;;;;;;18.37;51.43;99168.44;5011589;28;20081;-86
2022/05/24 04:57:04;;;;;;;7.60;5.65;;;;;;;18.65;51.40;99205.94;5011635;28;20514;-86
2022/05/24 04:59:30;;;;;;;11.25;5.45;;;;;;;18.82;51.28;99238.06;5012023;28;20025;-86
2022/05/24 05:01:55;;;;;;;7.53;5.38;;;;;;;19.10;51.31;99271.22;5033339;28;20184;-86
2022/05/24 05:04:21;;;;;;;6.47;5.45;;;;;;;18.64;51.28;99211.50;5016960;28;20030;-85
2022/05/24 05:06:47;;;;;;;10.07;4.97;;;;;;;18.79;51.08;99213.66;5017933;28;20037;-85
2022/05/24 05:09:13;;;;;;;6.95;4.93;;;;;;;19.20;50.84;99274.88;5018418;28;20433;-86
2022/05/24 05:11:39;;;;;;;8.07;4.80;;;;;;;18.84;50.98;99227.94;5017344;28;20026;-86
2022/05/24 05:14:05;;;;;;;9.30;4.57;;;;;;;19.00;50.88;99259.28;5017053;28;20028;-86
2022/05/24 05:16:31;;;;;;;9.38;4.88;;;;;;;19.36;50.88;99290.19;5018692;28;20053;-86
2022/05/24 05:18:57;;;;;;;10.00;4.85;;;;;;;19.14;50.94;99275.84;5017322;28;20404;-85
2022/05/24 05:21:22;;;;;;;5.38;4.40;;;;;;;18.69;51.11;99190.22;5018051;28;20034;-86
2022/05/24 05:23:48;;;;;;;6.50;5.40;;;;;;;17.55;51.12;98981.66;5016673;28;20026;-86
2022/05/24 05:26:16;;;;;;;6.97;5.85;;;;;;;19.04;50.78;99201.56;5017885;28;20109;-86
2022/05/24 05:28:42;;;;;;;8.93;5.95;;;;;;;19.52;50.91;99272.56;5017985;28;20029;-86
2022/05/24 05:31:17;;;;;;;7.38;5.75;;;;;;;19.56;50.66;99281.72;5016570;28;20112;-86
2022/05/24 05:33:44;;;;;;;9.63;5.45;;;;;;;19.58;50.62;99271.56;5017871;28;20416;-86
2022/05/24 05:36:11;;;;;;;11.25;5.20;;;;;;;19.63;50.58;99270.84;5016931;28;20121;-86
2022/05/24 05:38:36;;;;;;;7.30;5.30;;;;;;;19.29;50.43;99209.19;5016833;28;20026;-86
2022/05/24 05:41:04;;;;;;;9.55;5.07;;;;;;;19.69;50.64;99283.28;5017972;28;20096;-86
2022/05/24 05:43:29;;;;;;;6.93;4.78;;;;;;;19.61;50.45;99270.28;5016955;28;20018;-86
2022/05/24 05:45:59;;;;;;;6.03;4.75;;;;;;;19.77;50.30;99274.81;5017825;28;20479;-86
2022/05/24 05:48:26;;;;;;;9.55;4.97;;;;;;;19.84;50.12;99275.47;5018858;28;20137;-86
2022/05/24 05:50:52;;;;;;;9.55;5.55;;;;;;;19.91;50.04;99278.78;5018568;28;20495;-86
2022/05/24 05:53:19;;;;;;;8.60;5.60;;;;;;;19.93;49.52;99276.69;5016853;28;20196;-86
2022/05/24 05:55:44;;;;;;;9.45;4.88;;;;;;;19.58;49.88;99223.38;5016777;28;20018;-86
2022/05/24 05:58:11;;;;;;;6.38;5.00;;;;;;;19.94;49.65;99278.31;5018110;28;20085;-86
2022/05/24 06:00:39;;;;;;;10.02;5.30;;;;;;;20.02;49.78;99274.38;5017992;28;20483;-86
2022/05/24 06:03:04;;;;;;;11.95;6.03;;;;;;;19.62;49.68;99219.16;5017118;28;20089;-86
2022/05/24 06:05:30;;;;;;;11.05;6.50;;;;;;;19.81;49.46;99240.31;5017739;28;20033;-86
2022/05/24 06:07:57;;;;;;;16.00;6.38;;;;;;;20.04;49.19;99271.47;5017173;28;20138;-86
2022/05/24 06:10:23;;;;;;;8.70;5.75;;;;;;;19.92;49.37;99250.13;5016023;28;20411;-86
2022/05/24 06:12:48;;;;;;;10.18;5.53;;;;;;;19.51;49.34;99171.00;5013564;28;20033;-86
2022/05/24 06:15:14;;;;;;;11.23;6.43;;;;;;;19.81;49.29;99222.38;5012703;28;20030;-85
2022/05/24 06:17:48;;;;;;;9.98;5.85;;;;;;;19.52;49.14;99176.16;5014107;28;20022;-85
2022/05/24 06:20:15;;;;;;;11.27;5.45;;;;;;;19.49;49.06;99170.44;5014284;28;20026;-85
2022/05/24 06:22:40;;;;;;;14.52;5.95;;;;;;;19.56;48.82;99158.53;5014533;28;20112;-85
2022/05/24 06:25:06;;;;;;;9.68;5.10;;;;;;;19.83;48.65;99204.19;5013211;28;20546;-85
2022/05/24 06:27:31;;;;;;;12.73;5.93;;;;;;;19.51;48.87;99131.66;5029484;28;20527;-85
2022/05/24 06:29:57;;;;;;;6.82;5.45;;;;;;;20.23;48.63;99227.25;5014269;28;20064;-86
2022/05/24 06:32:22;;;;;;;12.30;5.88;;;;;;;20.07;48.59;99193.28;5012801;28;20033;-85
2022/05/24 06:34:49;;;;;;;14.27;6.60;;;;;;;19.80;48.43;99152.97;5012524;28;20026;-85
2022/05/24 06:37:21;;;;;;;11.38;5.78;;;;;;;20.67;48.42;99244.19;5013056;28;20078;-85
2022/05/24 06:39:47;;;;;;;8.13;4.80;;;;;;;20.27;48.12;99172.91;5013288;28;20060;-85
2022/05/24 06:42:12;;;;;;;9.40;5.10;;;;;;;20.73;47.79;99239.69;5013974;28;20104;-85
2022/05/24 06:44:38;;;;;;;8.95;5.35;;;;;;;20.29;47.75;99176.13;5023836;28;20129;-83
2022/05/24 06:47:04;;;;;;;8.85;5.28;;;;;;;20.36;47.51;99180.50;5038452;28;20030;-85
2022/05/24 06:49:30;;;;;;;9.13;4.95;;;;;;;20.37;47.57;99166.84;5032467;28;20092;-86
2022/05/24 06:51:56;;;;;;;12.15;5.10;;;;;;;21.04;47.22;99273.88;5012079;28;20079;-86
2022/05/24 06:54:21;;;;;;;8.57;5.03;;;;;;;20.61;47.18;99204.94;5013382;28;20572;-85
2022/05/24 06:56:46;;;;;;;6.57;4.07;;;;;;;20.44;47.08;99167.50;5013156;28;20021;-85
2022/05/24 07:04:40;;;;;;;9.25;4.40;;;;;;;21.10;46.30;99245.19;5013527;28;20029;-86
2022/05/24 07:07:06;;;;;;;6.47;4.60;;;;;;;21.47;46.15;99294.47;5012251;28;20022;-85
2022/05/24 07:09:31;;;;;;;8.55;4.70;;;;;;;21.18;46.23;99252.78;5013220;28;20121;-85
2022/05/24 07:12:00;;;;;;;8.23;4.45;;;;;;;21.22;46.07;99245.84;5013193;28;20084;-85
2022/05/24 07:14:26;;;;;;;6.47;4.45;;;;;;;20.97;46.07;99224.13;5011923;28;20029;-85
2022/05/24 07:16:52;;;;;;;10.45;4.80;;;;;;;21.55;46.12;99285.97;5012008;28;20022;-85
2022/05/24 07:19:19;;;;;;;9.00;4.18;;;;;;;21.38;46.32;99244.97;5012554;28;20033;-85
2022/05/24 07:21:44;;;;;;;6.95;4.22;;;;;;;21.10;45.99;99215.69;5013707;28;20029;-85
2022/05/24 07:24:10;;;;;;;7.00;4.50;;;;;;;21.31;45.94;99241.66;5012878;28;20025;-85
2022/05/24 07:26:35;;;;;;;9.20;3.92;;;;;;;21.28;45.74;99226.06;5014349;28;20380;-85
2022/05/24 07:29:01;;;;;;;9.82;4.70;;;;;;;21.62;45.52;99258.88;5026831;28;20522;-84
2022/05/24 07:31:26;;;;;;;7.70;4.00;;;;;;;21.57;44.92;99218.53;5035670;28;20037;-85
2022/05/24 07:33:52;;;;;;;6.45;3.20;;;;;;;21.59;44.70;99215.59;5034037;28;20032;-84
2022/05/24 07:36:17;;;;;;;5.75;3.03;;;;;;;22.02;44.33;99254.84;5014608;28;20029;-85
2022/05/24 07:38:42;;;;;;;4.50;2.90;;;;;;;22.17;44.10;99257.66;5013306;28;20018;-85
2022/05/24 07:46:36;;;;;;;7.15;2.83;;;;;;;22.41;43.16;99263.47;5012755;28;20045;-85
2022/05/24 07:49:02;;;;;;;6.32;3.30;;;;;;;22.14;43.44;99223.22;5011336;28;20017;-85
2022/05/24 07:51:27;;;;;;;4.40;2.83;;;;;;;22.18;43.37;99249.34;5011668;28;20032;-85
2022/05/24 07:53:53;;;;;;;6.22;3.20;;;;;;;22.54;43.35;99291.75;5011359;28;20446;-85
2022/05/24 07:56:19;;;;;;;4.88;3.25;;;;;;;22.33;43.00;99254.00;5011521;28;20049;-85
2022/05/24 07:58:48;;;;;;;7.25;3.55;;;;;;;22.63;42.69;99276.72;5011411;28;20034;-85
2022/05/24 08:01:15;;;;;;;5.00;3.20;;;;;;;22.78;42.58;99279.47;5012387;28;20438;-85
2022/05/24 08:03:41;;;;;;;6.47;3.63;;;;;;;21.90;42.51;99147.53;5011296;28;20111;-85
2022/05/24 08:06:07;;;;;;;7.72;3.67;;;;;;;22.78;42.12;99282.97;5010725;28;20483;-85
2022/05/24 08:08:33;;;;;;;4.35;3.00;;;;;;;22.54;42.22;99248.72;5011926;28;20029;-85
2022/05/24 08:10:59;;;;;;;7.10;3.20;;;;;;;22.75;42.12;99261.16;5012105;28;20417;-85
2022/05/24 08:13:25;;;;;;;5.70;2.95;;;;;;;22.52;42.00;99203.25;5010653;28;20109;-85
2022/05/24 08:15:52;;;;;;;7.47;3.00;;;;;;;23.03;41.87;99260.72;5011897;28;20028;-85
2022/05/24 08:18:19;;;;;;;6.72;3.45;;;;;;;22.37;41.78;99147.50;5011890;28;20434;-86
2022/05/24 08:20:45;;;;;;;9.13;3.85;;;;;;;23.02;42.07;99223.31;5012359;28;20026;-85
2022/05/24 08:23:11;;;;;;;6.05;2.83;;;;;;;22.13;42.12;99079.91;5012236;28;20032;-85
2022/05/24 08:25:37;;;;;;;6.55;3.13;;;;;;;23.46;41.75;99251.38;5012645;28;20493;-85
2022/05/24 08:28:07;;;;;;;5.28;2.80;;;;;;;23.58;41.68;99236.84;5012380;28;20416;-85
2022/05/24 08:30:34;;;;;;;9.55;3.78;;;;;;;23.32;41.26;99169.47;5012172;28;20044;-85
2022/05/24 08:33:04;;;;;;;9.25;3.90;;;;;;;23.74;40.96;99223.09;5012362;28;20029;-85
2022/05/24 08:35:32;;;;;;;6.95;3.88;;;;;;;23.21;40.64;99119.38;5011505;28;20091;-85
2022/05/24 08:37:58;;;;;;;9.30;4.50;;;;;;;23.89;40.33;99208.81;5010157;28;20022;-85
2022/05/24 08:40:24;;;;;;;9.15;4.10;;;;;;;24.12;39.93;99236.25;5011284;28;20049;-85
2022/05/24 08:43:16;;;;;;;8.82;4.10;;;;;;;23.81;39.91;99182.41;5010310;28;20022;-85
2022/05/24 08:48:48;;;;;;;7.75;3.45;;;;;;;24.54;39.49;99231.31;5011419;28;20028;-85
2022/05/24 08:51:30;;;;;;;7.25;3.10;;;;;;;24.12;39.38;99136.44;5010280;28;20033;-85
2022/05/24 08:54:00;;;;;;;11.13;3.20;;;;;;;24.85;39.65;99233.84;5011656;28;20042;-84
2022/05/24 08:56:30;;;;;;;5.78;3.03;;;;;;;24.89;39.20;99229.50;5012100;28;20426;-84
2022/05/24 08:59:03;;;;;;;6.07;3.10;;;;;;;24.73;39.21;99198.28;5013290;28;20066;-84
2022/05/24 09:01:32;;;;;;;5.57;3.05;;;;;;;24.56;39.64;99168.94;5012571;28;20139;-84
2022/05/24 09:04:04;;;;;;;5.10;2.88;;;;;;;25.07;39.73;99228.06;5011462;28;20694;-84
2022/05/24 09:06:29;;;;;;;3.33;2.60;;;;;;;25.20;39.55;99225.53;5011357;28;20414;-84
2022/05/24 09:09:12;;;;;;;6.10;3.25;;;;;;;25.18;39.32;99229.59;5009929;28;20022;-84
2022/05/24 09:11:54;;;;;;;5.38;2.75;;;;;;;25.43;39.19;99231.31;5009859;28;20034;-84
2022/05/24 09:14:47;;;;;;;3.33;2.80;;;;;;;25.38;39.14;99182.72;5011230;28;20049;-84
2022/05/24 09:17:49;;;;;;;5.95;2.60;;;;;;;25.96;38.48;99221.38;5011421;28;20030;-84
2022/05/24 09:20:24;;;;;;;5.97;2.70;;;;;;;26.06;38.37;99215.91;5010999;28;20034;-85
2022/05/24 09:22:50;;;;;;;5.63;2.72;;;;;;;26.16;38.13;99231.22;5011017;28;20026;-84
2022/05/24 09:25:16;;;;;;;4.55;2.42;;;;;;;25.96;37.99;99187.03;5011245;28;20033;-84
2022/05/24 09:27:53;;;;;;;4.38;2.10;;;;;;;26.06;38.44;99204.28;5011147;28;20026;-84
2022/05/24 09:30:31;;;;;;;4.60;2.40;;;;;;;26.23;38.37;99218.13;5026162;28;20025;-85
2022/05/24 09:33:23;;;;;;;5.13;2.72;;;;;;;26.23;38.14;99218.13;5009720;28;21101;-85
2022/05/24 09:35:51;;;;;;;6.30;2.47;;;;;;;26.36;38.02;99205.84;5009862;28;20033;-86
2022/05/24 09:38:18;;;;;;;4.45;2.60;;;;;;;26.18;37.45;99142.44;5011061;28;20167;-85
2022/05/24 09:40:59;;;;;;;4.32;2.85;;;;;;;26.70;37.03;99159.63;5011348;28;20088;-85
2022/05/24 09:43:35;;;;;;;5.80;2.63;;;;;;;27.08;36.62;99204.59;5009924;28;20037;-85
2022/05/24 09:46:22;;;;;;;3.65;2.33;;;;;;;27.06;35.63;99166.16;5009966;28;20865;-85
2022/05/24 09:49:00;;;;;;;4.95;3.40;;;;;;;27.35;35.76;99178.69;5013778;28;20029;-86
2022/05/24 09:51:40;;;;;;;6.25;3.28;;;;;;;27.79;35.46;99208.88;5013577;28;20029;-86
2022/05/24 09:54:14;;;;;;;5.40;3.05;;;;;;;28.05;35.04;99206.50;5013375;28;20050;-86
2022/05/24 09:56:40;;;;;;;5.97;2.80;;;;;;;27.70;34.39;99144.78;5015083;28;20105;-85
2022/05/24 09:59:23;;;;;;;7.03;3.10;;;;;;;27.72;34.15;99158.84;5013181;28;20172;-85
2022/05/24 10:01:50;;;;;;;5.80;2.70;;;;;;;28.06;34.16;99215.44;5013244;28;20030;-85
2022/05/24 10:04:22;;;;;;;4.25;2.60;;;;;;;27.97;34.39;99204.47;5013230;28;20025;-85
2022/05/24 10:07:04;;;;;;;6.50;3.33;;;;;;;27.77;34.84;99202.16;5013469;28;20526;-84
2022/05/24 10:10:06;;;;;;;5.15;2.90;;;;;;;27.62;34.78;99197.81;5014994;28;20045;-85
2022/05/24 10:13:07;;;;;;;4.85;2.72;;;;;;;27.56;34.95;99204.38;5013431;28;20057;-84
2022/05/24 10:15:40;;;;;;;6.30;3.08;;;;;;;27.36;34.88;99167.56;4999111;28;20041;-84
2022/05/24 10:18:47;;;;;;;7.03;2.70;;;;;;;27.21;34.73;99178.66;5015093;28;20022;-84
2022/05/24 10:21:22;;;;;;;8.20;2.90;;;;;;;27.21;35.08;99206.56;5013329;28;20025;-85
2022/05/24 10:24:12;;;;;;;4.97;2.80;;;;;;;26.74;35.32;99144.38;5013727;28;20515;-85
2022/05/24 10:27:04;;;;;;;4.53;2.30;;;;;;;26.86;35.71;99188.94;5014446;28;20417;-84
2022/05/24 10:29:51;;;;;;;7.00;3.00;;;;;;;26.70;35.66;99186.69;5014788;28;20026;-84
2022/05/24 10:38:32;;;;;;;4.78;3.00;;;;;;;26.68;36.50;99178.06;5014547;28;20036;-85
2022/05/24 10:40:59;;;;;;;2.85;2.50;;;;;;;26.76;36.45;99174.72;5014746;28;20033;-86
2022/05/24 10:43:30;;;;;;;6.45;3.45;;;;;;;26.81;36.71;99171.94;5014392;28;20509;-85
2022/05/24 10:46:04;;;;;;;4.93;3.20;;;;;;;26.73;36.71;99181.50;5013157;28;20036;-86
2022/05/24 10:48:45;;;;;;;6.68;3.00;;;;;;;26.72;36.53;99189.91;5014306;28;20410;-86
2022/05/24 10:51:13;;;;;;;24.17;4.35;;;;;;;26.78;36.69;99180.66;5014380;28;20418;-85
2022/05/24 10:53:47;;;;;;;5.15;2.35;;;;;;;26.89;36.64;99184.81;5013840;28;20058;-85
2022/05/24 10:56:49;;;;;;;6.35;2.58;;;;;;;26.93;36.56;99175.00;5012673;28;20022;-85
2022/05/24 10:59:38;;;;;;;6.47;2.33;;;;;;;26.87;36.56;99182.41;5012520;28;20049;-86
2022/05/24 11:02:41;;;;;;;5.05;3.40;;;;;;;26.72;36.75;99170.97;5013838;28;20021;-85
2022/05/24 11:05:28;;;;;;;6.13;2.92;;;;;;;26.18;36.48;99108.06;5007650;28;20065;-85
2022/05/24 11:08:11;;;;;;;7.13;3.28;;;;;;;26.64;37.07;99156.19;5014120;28;20017;-84
2022/05/24 11:10:41;;;;;;;5.95;3.45;;;;;;;26.12;37.16;99084.06;5013899;28;20080;-84
2022/05/24 11:13:12;;;;;;;6.60;3.50;;;;;;;26.57;37.22;99156.53;5012983;28;20061;-85
2022/05/24 11:15:47;;;;;;;9.10;3.92;;;;;;;26.58;37.42;99163.56;5012934;28;20017;-84
2022/05/24 11:18:17;;;;;;;5.85;2.63;;;;;;;26.25;37.15;99121.22;5013957;28;20053;-84
2022/05/24 11:20:57;;;;;;;6.80;5.07;;;;;;;26.03;37.40;99096.63;5013843;28;20026;-84
2022/05/24 11:23:33;;;;;;;9.48;4.30;;;;;;;25.90;37.77;99074.56;5012623;28;20056;-84
2022/05/24 11:26:14;;;;;;;5.70;3.38;;;;;;;26.17;37.51;99097.53;5013519;28;20026;-85
2022/05/24 11:28:54;;;;;;;5.57;2.75;;;;;;;26.71;37.26;99143.06;5013776;28;20018;-84
2022/05/24 11:31:28;;;;;;;9.88;5.43;;;;;;;26.65;37.31;99130.69;5013886;28;20026;-84
2022/05/24 11:33:56;;;;;;;10.82;7.65;;;;;;;25.95;37.31;99023.09;5013893;28;20050;-83
2022/05/24 11:36:40;;;;;;;5.97;3.00;;;;;;;26.51;37.55;99116.28;5013961;28;20462;-84
2022/05/24 11:39:24;;;;;;;9.63;4.13;;;;;;;25.80;38.11;99011.69;5012160;28;20434;-84
2022/05/24 11:42:21;;;;;;;6.22;5.53;;;;;;;26.44;38.16;99086.88;5013246;28;20055;-85
2022/05/24 11:44:48;;;;;;;7.43;4.10;;;;;;;26.49;38.14;99102.25;5013286;28;20101;-85
2022/05/24 11:47:35;;;;;;;5.20;3.15;;;;;;;27.09;37.55;99091.59;5011874;28;20021;-85
2022/05/24 11:50:35;;;;;;;6.80;3.50;;;;;;;27.28;36.93;99057.09;5012239;28;20026;-85
2022/05/24 11:53:15;;;;;;;5.63;4.53;;;;;;;27.56;37.33;99116.81;5013217;28;20056;-85
2022/05/24 11:55:45;;;;;;;5.45;2.65;;;;;;;27.35;37.14;99113.63;5012176;28;20032;-85
2022/05/24 11:58:31;;;;;;;4.57;2.97;;;;;;;27.11;37.29;99114.59;5011781;28;20113;-85
2022/05/24 12:01:01;;;;;;;5.03;3.15;;;;;;;27.08;37.70;99112.47;5001574;28;20095;-85
2022/05/24 12:10:02;;;;;;;4.13;2.63;;;;;;;26.94;38.00;99072.84;5012705;28;20465;-85
2022/05/24 12:12:44;;;;;;;4.28;2.88;;;;;;;27.23;37.99;99106.78;5013186;28;20104;-85
2022/05/24 12:15:46;;;;;;;7.15;3.70;;;;;;;27.28;38.08;99105.09;5024176;28;20056;-83
2022/05/24 12:18:16;;;;;;;4.45;3.20;;;;;;;27.09;37.94;99031.97;5035634;28;20041;-85
2022/05/24 12:20:42;;;;;;;8.93;8.00;;;;;;;27.50;37.92;99097.09;5028035;28;20072;-85
2022/05/24 12:23:07;;;;;;;6.15;4.60;;;;;;;27.59;37.79;99108.88;5015396;28;20030;-85
2022/05/24 12:25:59;;;;;;;4.93;3.40;;;;;;;27.54;37.96;99111.69;5012438;28;20076;-85
2022/05/24 12:28:37;;;;;;;5.65;3.90;;;;;;;27.45;38.18;99105.31;5012325;28;20021;-85